createdAt,value
2016-07-27T00:00:13.577Z,66.75
2016-07-27T00:01:13.603Z,66.66
2016-07-27T00:02:13.629Z,66.75
2016-07-27T00:03:13.657Z,66.47
2016-07-27T00:04:13.685Z,66.66
2016-07-27T00:05:13.709Z,66.37
2016-07-27T00:06:13.745Z,66.75
2016-07-27T00:07:13.764Z,66.66
2016-07-27T00:08:13.792Z,66.56
2016-07-27T00:09:13.819Z,66.56
2016-07-27T00:10:13.845Z,66.56
2016-07-27T00:11:14.571Z,66.47
2016-07-27T00:12:13.898Z,66.75
2016-07-27T00:13:13.927Z,66.75
2016-07-27T00:14:13.955Z,66.75
2016-07-27T00:15:13.980Z,66.56
2016-07-27T00:16:14.008Z,66.66
2016-07-27T00:17:14.033Z,66.66
2016-07-27T00:18:14.060Z,66.95
2016-07-27T00:19:14.088Z,66.66
2016-07-27T00:20:14.114Z,66.56
2016-07-27T00:21:14.141Z,66.66
2016-07-27T00:22:14.170Z,66.66
2016-07-27T00:23:14.195Z,66.47
2016-07-27T00:24:14.223Z,66.47
2016-07-27T00:25:14.252Z,66.56
2016-07-27T00:26:14.277Z,66.27
2016-07-27T00:27:14.301Z,66.56
2016-07-27T00:28:14.330Z,66.56
2016-07-27T00:29:14.356Z,66.47
2016-07-27T00:30:14.384Z,66.37
2016-07-27T00:31:14.418Z,66.37
2016-07-27T00:32:14.436Z,66.66
2016-07-27T00:33:14.468Z,66.56
2016-07-27T00:34:14.491Z,66.56
2016-07-27T00:35:14.517Z,66.47
2016-07-27T00:36:14.549Z,66.37
2016-07-27T00:37:14.571Z,66.47
2016-07-27T00:38:14.599Z,66.37
2016-07-27T00:39:14.625Z,66.37
2016-07-27T00:40:14.652Z,66.56
2016-07-27T00:41:14.679Z,66.56
2016-07-27T00:42:14.705Z,66.47
2016-07-27T00:43:14.741Z,66.37
2016-07-27T00:44:14.759Z,66.37
2016-07-27T00:45:14.787Z,66.56
2016-07-27T00:46:14.812Z,66.66
2016-07-27T00:47:14.841Z,66.75
2016-07-27T00:48:14.869Z,66.47
2016-07-27T00:49:14.895Z,66.85
2016-07-27T00:50:14.920Z,66.85
2016-07-27T00:51:15.645Z,67.33
2016-07-27T00:52:14.974Z,66.95
2016-07-27T00:53:15.001Z,66.66
2016-07-27T00:54:15.029Z,67.05
2016-07-27T00:55:15.055Z,66.75
2016-07-27T00:56:15.080Z,66.85
2016-07-27T00:57:15.109Z,67.24
2016-07-27T00:58:15.135Z,66.75
2016-07-27T00:59:15.163Z,67.05
2016-07-27T01:00:15.196Z,66.75
2016-07-27T01:01:15.214Z,66.95
2016-07-27T01:02:15.243Z,66.75
2016-07-27T01:03:15.269Z,66.95
2016-07-27T01:04:15.298Z,66.75
2016-07-27T01:05:15.323Z,67.05
2016-07-27T01:06:15.348Z,66.95
2016-07-27T01:07:15.377Z,67.05
2016-07-27T01:08:15.403Z,66.95
2016-07-27T01:09:15.431Z,67.05
2016-07-27T01:10:15.457Z,67.43
2016-07-27T01:11:15.484Z,67.33
2016-07-27T01:12:15.511Z,66.85
2016-07-27T01:13:15.538Z,66.75
2016-07-27T01:14:15.564Z,66.95
2016-07-27T01:15:15.590Z,66.85
2016-07-27T01:16:15.620Z,67.05
2016-07-27T01:17:15.645Z,66.75
2016-07-27T01:18:15.671Z,67.01
2016-07-27T01:19:15.699Z,66.72
2016-07-27T01:20:15.727Z,66.75
2016-07-27T01:21:15.754Z,66.66
2016-07-27T01:22:15.779Z,66.95
2016-07-27T01:23:15.808Z,66.82
2016-07-27T01:24:15.833Z,66.95
2016-07-27T01:25:15.861Z,66.85
2016-07-27T01:26:15.886Z,67.14
2016-07-27T01:27:15.916Z,66.95
2016-07-27T01:28:15.943Z,67.01
2016-07-27T01:29:15.967Z,67.14
2016-07-27T01:30:15.996Z,66.95
2016-07-27T01:31:16.023Z,67.14
2016-07-27T01:32:16.051Z,66.95
2016-07-27T01:33:16.074Z,66.95
2016-07-27T01:34:16.106Z,66.85
2016-07-27T01:35:16.129Z,67.11
2016-07-27T01:36:16.155Z,67.43
2016-07-27T01:37:16.183Z,67.11
2016-07-27T01:38:16.210Z,67.11
2016-07-27T01:39:16.237Z,67.53
2016-07-27T01:40:16.262Z,67.21
2016-07-27T01:41:16.290Z,67.21
2016-07-27T01:42:16.317Z,67.21
2016-07-27T01:43:16.343Z,67.3
2016-07-27T01:44:16.370Z,67.14
2016-07-27T01:45:16.398Z,67.21
2016-07-27T01:46:16.425Z,67.21
2016-07-27T01:47:16.451Z,67.49
2016-07-27T01:48:16.478Z,67.4
2016-07-27T01:49:16.503Z,67.14
2016-07-27T01:50:16.532Z,67.59
2016-07-27T01:51:16.559Z,67.3
2016-07-27T01:52:16.584Z,67.79
2016-07-27T01:53:16.612Z,67.4
2016-07-27T01:54:16.635Z,67.49
2016-07-27T01:55:16.665Z,67.49
2016-07-27T01:56:16.692Z,67.59
2016-07-27T01:57:16.718Z,67.69
2016-07-27T01:58:16.745Z,67.4
2016-07-27T01:59:16.770Z,67.21
2016-07-27T02:00:16.803Z,67.3
2016-07-27T02:01:16.827Z,67.4
2016-07-27T02:02:16.853Z,67.4
2016-07-27T02:03:16.881Z,67.3
2016-07-27T02:04:16.907Z,67.49
2016-07-27T02:05:16.932Z,67.69
2016-07-27T02:06:16.958Z,68.46
2016-07-27T02:07:16.986Z,68.08
2016-07-27T02:08:17.012Z,68.17
2016-07-27T02:09:17.040Z,68.27
2016-07-27T02:10:17.066Z,68.37
2016-07-27T02:11:17.093Z,68.17
2016-07-27T02:12:17.121Z,68.17
2016-07-27T02:13:17.149Z,67.88
2016-07-27T02:14:17.173Z,68.17
2016-07-27T02:15:17.200Z,68.08
2016-07-27T02:16:17.226Z,67.98
2016-07-27T02:17:17.255Z,67.98
2016-07-27T02:18:17.282Z,68.17
2016-07-27T02:19:17.309Z,67.88
2016-07-27T02:20:17.332Z,67.98
2016-07-27T02:21:17.362Z,67.88
2016-07-27T02:22:17.386Z,68.08
2016-07-27T02:23:17.424Z,68.37
2016-07-27T02:24:17.440Z,68.46
2016-07-27T02:25:17.467Z,68.27
2016-07-27T02:26:17.496Z,68.46
2016-07-27T02:27:17.523Z,68.46
2016-07-27T02:28:17.548Z,67.88
2016-07-27T02:29:17.575Z,67.98
2016-07-27T02:30:17.600Z,68.27
2016-07-27T02:31:17.632Z,68.37
2016-07-27T02:32:17.653Z,68.27
2016-07-27T02:33:17.679Z,67.85
2016-07-27T02:34:17.707Z,68.52
2016-07-27T02:35:17.731Z,68.33
2016-07-27T02:36:17.760Z,68.33
2016-07-27T02:37:17.788Z,68.17
2016-07-27T02:38:17.814Z,68.56
2016-07-27T02:39:17.840Z,68.43
2016-07-27T02:40:17.866Z,68.72
2016-07-27T02:41:17.896Z,68.46
2016-07-27T02:42:17.918Z,68.62
2016-07-27T02:43:17.946Z,68.52
2016-07-27T02:44:17.974Z,68.52
2016-07-27T02:45:18.000Z,68.52
2016-07-27T02:46:18.030Z,68.62
2016-07-27T02:47:18.054Z,68.52
2016-07-27T02:48:18.079Z,68.43
2016-07-27T02:49:18.115Z,68.43
2016-07-27T02:50:18.131Z,68.43
2016-07-27T02:51:18.163Z,68.33
2016-07-27T02:52:18.185Z,68.52
2016-07-27T02:53:18.212Z,68.52
2016-07-27T02:54:18.239Z,68.62
2016-07-27T02:55:18.265Z,68.52
2016-07-27T02:56:18.293Z,68.33
2016-07-27T02:57:18.318Z,68.62
2016-07-27T02:58:18.347Z,68.43
2016-07-27T02:59:18.371Z,68.52
2016-07-27T03:00:18.397Z,68.52
2016-07-27T03:01:18.424Z,69.01
2016-07-27T03:02:18.451Z,68.91
2016-07-27T03:03:18.491Z,68.62
2016-07-27T03:04:18.505Z,68.72
2016-07-27T03:05:18.535Z,69.01
2016-07-27T03:06:18.563Z,68.91
2016-07-27T03:07:18.584Z,68.82
2016-07-27T03:08:18.609Z,69.1
2016-07-27T03:09:18.634Z,68.82
2016-07-27T03:10:18.663Z,68.91
2016-07-27T03:11:18.689Z,68.91
2016-07-27T03:12:18.714Z,69.01
2016-07-27T03:13:18.743Z,68.82
2016-07-27T03:14:18.768Z,68.82
2016-07-27T03:15:18.795Z,68.82
2016-07-27T03:16:18.822Z,69.1
2016-07-27T03:17:18.848Z,68.91
2016-07-27T03:18:18.872Z,68.91
2016-07-27T03:19:18.899Z,68.91
2016-07-27T03:20:18.927Z,68.91
2016-07-27T03:21:18.954Z,68.91
2016-07-27T03:22:18.983Z,68.82
2016-07-27T03:23:19.004Z,68.72
2016-07-27T03:24:19.033Z,68.62
2016-07-27T03:25:19.061Z,68.62
2016-07-27T03:26:19.085Z,68.62
2016-07-27T03:27:19.113Z,68.72
2016-07-27T03:28:19.138Z,68.62
2016-07-27T03:29:19.165Z,69.1
2016-07-27T03:30:19.192Z,69.1
2016-07-27T03:31:19.219Z,68.91
2016-07-27T03:32:19.242Z,69.3
2016-07-27T03:33:19.270Z,69.3
2016-07-27T03:34:19.298Z,69.01
2016-07-27T03:35:19.322Z,68.91
2016-07-27T03:36:19.351Z,69.01
2016-07-27T03:37:19.376Z,69.2
2016-07-27T03:38:19.402Z,69.2
2016-07-27T03:39:19.437Z,69.2
2016-07-27T03:40:19.452Z,68.82
2016-07-27T03:41:19.482Z,69.2
2016-07-27T03:42:19.519Z,69.2
2016-07-27T03:43:19.535Z,69.3
2016-07-27T03:44:19.560Z,69.1
2016-07-27T03:45:19.585Z,69.3
2016-07-27T03:46:19.613Z,69.4
2016-07-27T03:47:19.644Z,69.3
2016-07-27T03:48:19.665Z,69.1
2016-07-27T03:49:19.691Z,69.4
2016-07-27T03:50:19.719Z,69.3
2016-07-27T03:51:19.755Z,69.2
2016-07-27T03:52:19.770Z,69.3
2016-07-27T03:53:19.796Z,69.01
2016-07-27T03:54:19.824Z,68.91
2016-07-27T03:55:19.850Z,69.2
2016-07-27T03:56:19.877Z,69.2
2016-07-27T03:57:19.904Z,69.2
2016-07-27T03:58:20.628Z,69.2
2016-07-27T03:59:20.652Z,69.3
2016-07-27T04:00:19.980Z,69.3
2016-07-27T04:01:20.008Z,69.3
2016-07-27T04:02:20.032Z,69.2
2016-07-27T04:03:20.060Z,69.59
2016-07-27T04:04:20.086Z,69.49
2016-07-27T04:05:20.112Z,69.1
2016-07-27T04:06:20.139Z,69.3
2016-07-27T04:07:20.165Z,69.59
2016-07-27T04:08:20.191Z,69.4
2016-07-27T04:09:20.218Z,69.2
2016-07-27T04:10:20.244Z,69.3
2016-07-27T04:11:20.271Z,69.3
2016-07-27T04:12:20.297Z,69.2
2016-07-27T04:13:20.320Z,69.3
2016-07-27T04:14:20.346Z,69.1
2016-07-27T04:15:20.375Z,69.2
2016-07-27T04:16:20.400Z,69.4
2016-07-27T04:17:20.427Z,69.3
2016-07-27T04:18:20.455Z,69.2
2016-07-27T04:19:20.478Z,69.1
2016-07-27T04:20:20.506Z,69.2
2016-07-27T04:21:20.532Z,69.1
2016-07-27T04:22:20.558Z,69.3
2016-07-27T04:23:20.590Z,69.2
2016-07-27T04:24:21.308Z,69.1
2016-07-27T04:25:20.637Z,69.01
2016-07-27T04:26:20.663Z,69.4
2016-07-27T04:27:20.690Z,69.4
2016-07-27T04:28:20.713Z,69.1
2016-07-27T04:29:20.741Z,69.01
2016-07-27T04:30:20.767Z,69.4
2016-07-27T04:31:20.795Z,69.4
2016-07-27T04:32:20.821Z,69.4
2016-07-27T04:33:20.856Z,69.3
2016-07-27T04:34:20.874Z,69.1
2016-07-27T04:35:20.898Z,69.1
2016-07-27T04:36:20.925Z,69.1
2016-07-27T04:38:20.977Z,68.82
2016-07-27T04:39:21.008Z,69.01
2016-07-27T04:40:21.030Z,69.1
2016-07-27T04:41:21.057Z,68.82
2016-07-27T04:42:21.081Z,68.82
2016-07-27T04:43:21.108Z,68.91
2016-07-27T04:44:21.139Z,69.01
2016-07-27T04:45:21.162Z,68.52
2016-07-27T04:46:21.187Z,68.33
2016-07-27T04:47:21.214Z,68.52
2016-07-27T04:48:21.240Z,68.43
2016-07-27T04:49:21.264Z,68.72
2016-07-27T04:50:21.292Z,68.52
2016-07-27T04:51:21.318Z,67.98
2016-07-27T04:53:21.368Z,68.46
2016-07-27T04:54:21.394Z,68.24
2016-07-27T04:55:21.423Z,67.85
2016-07-27T04:56:21.449Z,68.24
2016-07-27T04:57:21.474Z,67.98
2016-07-27T04:58:21.499Z,67.98
2016-07-27T04:59:21.526Z,67.88
2016-07-27T05:00:21.560Z,68.08
2016-07-27T05:01:21.578Z,67.98
2016-07-27T05:02:21.606Z,68.37
2016-07-27T05:03:21.631Z,68.24
2016-07-27T05:04:21.658Z,67.88
2016-07-27T05:05:21.684Z,68.08
2016-07-27T05:06:21.711Z,68.27
2016-07-27T05:08:21.760Z,67.98
2016-07-27T05:09:21.788Z,67.49
2016-07-27T05:10:21.813Z,67.79
2016-07-27T05:11:21.840Z,67.69
2016-07-27T05:12:21.867Z,67.49
2016-07-27T05:13:21.894Z,67.98
2016-07-27T05:14:21.921Z,68.17
2016-07-27T05:15:21.946Z,67.98
2016-07-27T05:16:21.972Z,68.37
2016-07-27T05:17:21.999Z,67.3
2016-07-27T05:18:22.023Z,67.49
2016-07-27T05:19:22.051Z,67.4
2016-07-27T05:20:22.076Z,67.21
2016-07-27T05:21:22.104Z,67.4
2016-07-27T05:23:22.157Z,67.3
2016-07-27T05:24:22.183Z,67.49
2016-07-27T05:25:22.210Z,67.4
2016-07-27T05:26:22.234Z,67.59
2016-07-27T05:27:22.261Z,67.4
2016-07-27T05:28:22.289Z,67.69
2016-07-27T05:29:22.314Z,67.69
2016-07-27T05:30:22.341Z,67.21
2016-07-27T05:31:22.366Z,67.21
2016-07-27T05:32:22.395Z,67.49
2016-07-27T05:33:22.421Z,67.4
2016-07-27T05:34:22.447Z,67.21
2016-07-27T05:35:22.473Z,67.21
2016-07-27T05:36:22.498Z,67.11
2016-07-27T05:38:22.551Z,67.3
2016-07-27T05:39:22.579Z,66.91
2016-07-27T05:40:22.605Z,66.82
2016-07-27T05:41:22.630Z,67.49
2016-07-27T05:42:22.658Z,66.82
2016-07-27T05:43:22.685Z,66.33
2016-07-27T05:44:22.709Z,66.66
2016-07-27T05:45:22.737Z,66.95
2016-07-27T05:46:22.762Z,66.47
2016-07-27T05:47:22.790Z,66.08
2016-07-27T05:48:22.816Z,66.66
2016-07-27T05:49:22.843Z,66.37
2016-07-27T05:50:22.878Z,66.72
2016-07-27T05:51:22.897Z,66.91
2016-07-27T05:53:23.647Z,66.08
2016-07-27T05:54:22.975Z,66.08
2016-07-27T05:55:23.008Z,66.17
2016-07-27T05:56:23.026Z,66.27
2016-07-27T05:57:23.055Z,65.3
2016-07-27T05:58:23.082Z,65.43
2016-07-27T05:59:23.108Z,65.79
2016-07-27T06:00:23.134Z,64.56
2016-07-27T06:01:23.160Z,64.75
2016-07-27T06:02:23.192Z,64.66
2016-07-27T06:03:23.216Z,63.98
2016-07-27T06:04:23.239Z,64.11
2016-07-27T06:05:23.269Z,64.11
2016-07-27T06:06:23.295Z,64.2
2016-07-27T06:08:23.350Z,64.27
2016-07-27T06:09:23.377Z,64.17
2016-07-27T06:10:23.403Z,64.75
2016-07-27T06:11:23.434Z,64.85
2016-07-27T06:12:23.456Z,64.95
2016-07-27T06:13:23.483Z,65.14
2016-07-27T06:14:23.509Z,64.66
2016-07-27T06:15:23.536Z,65.05
2016-07-27T06:16:23.561Z,64.95
2016-07-27T06:17:23.589Z,65.05
2016-07-27T06:18:23.616Z,64.85
2016-07-27T06:19:23.644Z,64.56
2016-07-27T06:20:24.367Z,64.37
2016-07-27T06:21:23.697Z,64.3
2016-07-27T06:23:23.753Z,63.34
2016-07-27T06:24:23.779Z,61.69
2016-07-27T06:25:23.805Z,62.2
2016-07-27T06:26:23.833Z,61.52
2016-07-27T06:27:23.859Z,59.71
2016-07-27T06:28:23.887Z,60.03
2016-07-27T06:29:23.915Z,59.84
2016-07-27T06:30:23.941Z,60.52
2016-07-27T06:31:23.970Z,61.36
2016-07-27T06:32:23.995Z,60.97
2016-07-27T06:33:24.022Z,59.61
2016-07-27T06:34:24.052Z,60.23
2016-07-27T06:35:24.080Z,60.58
2016-07-27T06:36:24.107Z,61.17
2016-07-27T06:38:24.162Z,60
2016-07-27T06:39:24.190Z,60.61
2016-07-27T06:40:24.217Z,60.78
2016-07-27T06:41:24.247Z,60.3
2016-07-27T06:42:24.275Z,60.23
2016-07-27T06:43:24.302Z,58.29
2016-07-27T06:44:24.329Z,57.86
2016-07-27T06:45:24.356Z,58.22
2016-07-27T06:46:24.386Z,55.99
2016-07-27T06:47:24.414Z,54.61
2016-07-27T06:48:24.442Z,53.47
2016-07-27T06:49:24.471Z,52.43
2016-07-27T06:50:24.498Z,52.26
2016-07-27T06:51:24.527Z,51.87
2016-07-27T06:53:24.585Z,51.58
2016-07-27T06:54:24.613Z,50.63
2016-07-27T06:55:24.641Z,50.73
2016-07-27T06:56:24.669Z,50.36
2016-07-27T06:57:24.698Z,50.16
2016-07-27T06:58:24.727Z,50.07
2016-07-27T06:59:24.754Z,50.85
2016-07-27T07:00:24.784Z,50.04
2016-07-27T07:01:24.813Z,49.1
2016-07-27T07:02:24.842Z,49.02
2016-07-27T07:03:24.870Z,48.05
2016-07-27T07:04:24.899Z,47.78
2016-07-27T07:05:24.933Z,47.02
2016-07-27T07:06:24.958Z,46.92
2016-07-27T07:08:25.018Z,46.17
2016-07-27T07:09:25.045Z,45.87
2016-07-27T07:10:25.076Z,45.39
2016-07-27T07:11:25.104Z,45.21
2016-07-27T07:12:25.138Z,44.73
2016-07-27T07:13:25.163Z,44.53
2016-07-27T07:14:25.193Z,45.82
2016-07-27T07:15:25.227Z,44.63
2016-07-27T07:16:25.251Z,44.06
2016-07-27T07:17:25.281Z,43.67
2016-07-27T07:18:25.312Z,43.79
2016-07-27T07:19:25.343Z,43.1
2016-07-27T07:20:25.373Z,42.71
2016-07-27T07:21:25.406Z,42.83
2016-07-27T07:23:25.463Z,43.75
2016-07-27T07:24:25.493Z,44.38
2016-07-27T07:25:25.522Z,43.55
2016-07-27T07:26:25.553Z,43.2
2016-07-27T07:27:25.583Z,42.81
2016-07-27T07:28:25.612Z,41.86
2016-07-27T07:29:25.644Z,41.88
2016-07-27T07:30:25.675Z,42.07
2016-07-27T07:31:25.705Z,41.39
2016-07-27T07:32:25.740Z,41.5
2016-07-27T07:33:25.764Z,40.92
2016-07-27T07:34:25.796Z,41.31
2016-07-27T07:35:25.826Z,41.21
2016-07-27T07:36:25.857Z,41.6
2016-07-27T07:38:25.918Z,43.59
2016-07-27T07:39:25.949Z,43.77
2016-07-27T07:40:25.978Z,42.03
2016-07-27T07:41:26.011Z,41.29
2016-07-27T07:42:26.041Z,40.82
2016-07-27T07:43:26.074Z,41.11
2016-07-27T07:44:26.105Z,42.66
2016-07-27T07:45:26.134Z,43.99
2016-07-27T07:46:26.164Z,42.3
2016-07-27T07:47:26.201Z,43.32
2016-07-27T07:48:26.226Z,42.91
2016-07-27T07:49:26.256Z,42.32
2016-07-27T07:50:26.287Z,41.96
2016-07-27T07:51:26.319Z,41.39
2016-07-27T07:53:26.379Z,43.52
2016-07-27T07:54:26.410Z,42.69
2016-07-27T07:55:26.441Z,43.79
2016-07-27T07:56:26.471Z,44.65
2016-07-27T07:57:26.500Z,45.02
2016-07-27T07:58:26.532Z,45.41
2016-07-27T07:59:26.562Z,45.68
2016-07-27T08:00:26.599Z,45.87
2016-07-27T08:01:26.621Z,46.46
2016-07-27T08:02:26.654Z,44.41
2016-07-27T08:03:26.684Z,43.87
2016-07-27T08:04:26.713Z,43.2
2016-07-27T08:05:26.754Z,43.2
2016-07-27T08:06:26.775Z,43.01
2016-07-27T08:08:26.838Z,43.01
2016-07-27T08:09:26.865Z,43.2
2016-07-27T08:10:26.897Z,43.1
2016-07-27T08:11:26.928Z,42.91
2016-07-27T08:12:26.958Z,44.09
2016-07-27T08:13:26.987Z,44.06
2016-07-27T08:14:27.017Z,43.96
2016-07-27T08:15:27.046Z,43.77
2016-07-27T08:16:27.078Z,43.77
2016-07-27T08:17:27.109Z,44.16
2016-07-27T08:18:27.138Z,43.48
2016-07-27T08:19:27.170Z,43.48
2016-07-27T08:20:27.200Z,43.57
2016-07-27T08:21:27.229Z,43.96
2016-07-27T08:23:27.288Z,44.73
2016-07-27T08:24:27.320Z,45.41
2016-07-27T08:25:27.356Z,45.39
2016-07-27T08:26:27.381Z,45.97
2016-07-27T08:27:27.411Z,45.68
2016-07-27T08:28:27.443Z,46.36
2016-07-27T08:29:27.472Z,46.36
2016-07-27T08:30:27.506Z,46.36
2016-07-27T08:31:27.531Z,46.36
2016-07-27T08:32:27.561Z,46.56
2016-07-27T08:33:27.592Z,46.34
2016-07-27T08:34:27.621Z,46.53
2016-07-27T08:35:27.657Z,46.44
2016-07-27T08:36:27.683Z,46.53
2016-07-27T08:37:27.714Z,47.22
2016-07-27T08:38:27.744Z,47.02
2016-07-27T08:39:27.772Z,47.22
2016-07-27T08:40:27.804Z,46.92
2016-07-27T08:41:27.833Z,47.09
2016-07-27T08:42:27.865Z,47.39
2016-07-27T08:43:27.898Z,47.58
2016-07-27T08:44:27.924Z,47.58
2016-07-27T08:45:27.954Z,48.07
2016-07-27T08:46:27.987Z,47.88
2016-07-27T08:47:28.014Z,47.75
2016-07-27T08:48:28.043Z,48.24
2016-07-27T08:49:28.075Z,48.14
2016-07-27T08:50:28.104Z,47.75
2016-07-27T08:51:28.140Z,47.95
2016-07-27T08:52:28.166Z,48.54
2016-07-27T08:53:28.193Z,48.44
2016-07-27T08:54:28.226Z,48.54
2016-07-27T08:55:28.255Z,48.63
2016-07-27T08:56:28.286Z,48.73
2016-07-27T08:57:28.322Z,49
2016-07-27T08:58:28.344Z,49
2016-07-27T08:59:28.376Z,49.58
2016-07-27T09:00:28.403Z,49.58
2016-07-27T09:01:28.437Z,49.29
2016-07-27T09:02:28.465Z,49.68
2016-07-27T09:03:28.496Z,49.58
2016-07-27T09:04:28.527Z,49.88
2016-07-27T09:05:28.556Z,49.39
2016-07-27T09:06:28.584Z,49.39
2016-07-27T09:07:28.614Z,50.14
2016-07-27T09:08:28.647Z,50.14
2016-07-27T09:09:28.675Z,50.14
2016-07-27T09:10:28.704Z,50.24
2016-07-27T09:11:28.736Z,49.85
2016-07-27T09:12:28.764Z,50.04
2016-07-27T09:13:28.796Z,50.04
2016-07-27T09:14:28.826Z,50.43
2016-07-27T09:15:28.858Z,50.34
2016-07-27T09:16:28.887Z,50.63
2016-07-27T09:17:28.916Z,50.82
2016-07-27T09:18:28.947Z,50.63
2016-07-27T09:19:28.977Z,50.6
2016-07-27T09:20:29.007Z,50.6
2016-07-27T09:21:29.038Z,50.92
2016-07-27T09:22:29.067Z,50.63
2016-07-27T09:23:29.097Z,51.02
2016-07-27T09:24:29.126Z,50.8
2016-07-27T09:25:29.156Z,50.9
2016-07-27T09:26:29.186Z,51.09
2016-07-27T09:27:29.215Z,51.29
2016-07-27T09:28:29.246Z,50.99
2016-07-27T09:29:29.275Z,50.99
2016-07-27T09:30:29.307Z,50.7
2016-07-27T09:31:29.335Z,50.7
2016-07-27T09:32:29.367Z,50.6
2016-07-27T09:33:29.397Z,50.9
2016-07-27T09:34:29.426Z,50.9
2016-07-27T09:35:29.456Z,50.6
2016-07-27T09:36:29.485Z,51.19
2016-07-27T09:37:29.516Z,51.48
2016-07-27T09:38:29.542Z,51.67
2016-07-27T09:39:29.574Z,51.39
2016-07-27T09:40:29.604Z,51.58
2016-07-27T09:41:29.634Z,51.48
2016-07-27T09:42:29.665Z,51.39
2016-07-27T09:43:29.694Z,51.48
2016-07-27T09:44:29.724Z,51.39
2016-07-27T09:45:29.753Z,51.39
2016-07-27T09:46:29.784Z,50.8
2016-07-27T09:47:29.814Z,50.6
2016-07-27T09:48:29.843Z,50.9
2016-07-27T09:49:29.872Z,50.7
2016-07-27T09:50:29.903Z,51.58
2016-07-27T09:51:29.932Z,50.99
2016-07-27T09:52:29.963Z,51.29
2016-07-27T09:53:29.992Z,51.39
2016-07-27T09:54:30.020Z,51.48
2016-07-27T09:55:30.052Z,51.48
2016-07-27T09:56:30.083Z,51.58
2016-07-27T09:57:30.112Z,51.48
2016-07-27T09:58:30.142Z,51.48
2016-07-27T09:59:30.170Z,51.48
2016-07-27T10:00:30.202Z,51.48
2016-07-27T10:01:30.230Z,51.39
2016-07-27T10:02:30.261Z,51.58
2016-07-27T10:03:30.291Z,51.48
2016-07-27T10:04:30.321Z,51.58
2016-07-27T10:05:30.351Z,51.58
2016-07-27T10:06:30.382Z,51.48
2016-07-27T10:07:30.412Z,51.19
2016-07-27T10:08:30.439Z,51.58
2016-07-27T10:09:30.471Z,51.39
2016-07-27T10:10:30.500Z,51.58
2016-07-27T10:11:30.529Z,51.48
2016-07-27T10:12:30.560Z,50.9
2016-07-27T10:13:30.591Z,51.39
2016-07-27T10:14:30.621Z,51.48
2016-07-27T10:15:30.648Z,51.48
2016-07-27T10:16:30.681Z,51.67
2016-07-27T10:17:30.711Z,51.19
2016-07-27T10:18:30.740Z,51.19
2016-07-27T10:19:30.769Z,51.48
2016-07-27T10:20:30.797Z,51.48
2016-07-27T10:21:30.829Z,50.9
2016-07-27T10:22:30.867Z,50.99
2016-07-27T10:23:30.886Z,50.8
2016-07-27T10:24:30.919Z,51.39
2016-07-27T10:25:30.949Z,50.7
2016-07-27T10:26:30.986Z,50.7
2016-07-27T10:27:31.008Z,50.8
2016-07-27T10:28:31.037Z,51.09
2016-07-27T10:29:31.072Z,51.39
2016-07-27T10:30:31.096Z,51.39
2016-07-27T10:31:31.128Z,51.19
2016-07-27T10:32:31.165Z,51.87
2016-07-27T10:33:31.187Z,51.87
2016-07-27T10:34:31.218Z,51.55
2016-07-27T10:35:31.246Z,51.65
2016-07-27T10:36:31.277Z,51.55
2016-07-27T10:37:31.304Z,51.36
2016-07-27T10:38:31.337Z,51.94
2016-07-27T10:39:31.367Z,51.55
2016-07-27T10:40:31.395Z,51.87
2016-07-27T10:41:31.426Z,51.77
2016-07-27T10:42:31.453Z,51.97
2016-07-27T10:43:31.486Z,51.58
2016-07-27T10:44:31.516Z,51.77
2016-07-27T10:45:31.546Z,51.55
2016-07-27T10:46:31.574Z,51.97
2016-07-27T10:47:31.605Z,51.84
2016-07-27T10:48:31.634Z,51.29
2016-07-27T10:49:31.663Z,51.19
2016-07-27T10:50:31.695Z,51.48
2016-07-27T10:51:31.730Z,51.58
2016-07-27T10:52:31.755Z,51.39
2016-07-27T10:53:31.785Z,51.58
2016-07-27T10:54:31.814Z,51.09
2016-07-27T10:55:31.843Z,51.77
2016-07-27T10:56:31.874Z,51.58
2016-07-27T10:57:31.902Z,51.97
2016-07-27T10:58:31.933Z,51.48
2016-07-27T10:59:31.963Z,51.58
2016-07-27T11:00:31.993Z,51.97
2016-07-27T11:01:32.022Z,51.45
2016-07-27T11:02:32.051Z,51.39
2016-07-27T11:03:32.083Z,51.19
2016-07-27T11:04:32.111Z,51.19
2016-07-27T11:05:32.144Z,51.29
2016-07-27T11:06:32.173Z,51.26
2016-07-27T11:07:32.203Z,51.87
2016-07-27T11:08:32.231Z,51.58
2016-07-27T11:09:32.260Z,51.84
2016-07-27T11:10:32.289Z,51.55
2016-07-27T11:11:32.322Z,51.55
2016-07-27T11:12:32.351Z,51.65
2016-07-27T11:13:32.379Z,51.55
2016-07-27T11:14:32.411Z,51.97
2016-07-27T11:15:32.438Z,51.75
2016-07-27T11:16:32.470Z,51.55
2016-07-27T11:17:32.500Z,51.55
2016-07-27T11:18:32.529Z,51.87
2016-07-27T11:19:32.559Z,51.77
2016-07-27T11:20:32.590Z,51.67
2016-07-27T11:21:32.619Z,51.67
2016-07-27T11:22:32.649Z,51.67
2016-07-27T11:23:32.683Z,51.65
2016-07-27T11:24:32.709Z,51.77
2016-07-27T11:25:32.737Z,51.65
2016-07-27T11:26:32.768Z,51.55
2016-07-27T11:27:32.797Z,51.39
2016-07-27T11:28:32.827Z,51.55
2016-07-27T11:29:32.857Z,51.48
2016-07-27T11:30:32.885Z,51.48
2016-07-27T11:31:32.915Z,51.48
2016-07-27T11:32:32.946Z,51.39
2016-07-27T11:33:32.976Z,51.39
2016-07-27T11:34:33.006Z,51.58
2016-07-27T11:35:33.036Z,51.87
2016-07-27T11:36:33.066Z,51.48
2016-07-27T11:37:33.094Z,51.39
2016-07-27T11:38:33.128Z,51.39
2016-07-27T11:39:33.155Z,51.19
2016-07-27T11:40:33.183Z,51.39
2016-07-27T11:41:33.215Z,51.48
2016-07-27T11:42:33.244Z,51.48
2016-07-27T11:43:33.281Z,51.48
2016-07-27T11:44:33.304Z,51.48
2016-07-27T11:45:33.335Z,51.39
2016-07-27T11:46:33.363Z,50.99
2016-07-27T11:47:33.393Z,50.9
2016-07-27T11:48:33.423Z,50.9
2016-07-27T11:49:33.452Z,51.58
2016-07-27T11:50:33.483Z,51.29
2016-07-27T11:51:33.513Z,51.77
2016-07-27T11:52:33.543Z,51.58
2016-07-27T11:53:33.573Z,51.45
2016-07-27T11:54:33.601Z,51.55
2016-07-27T11:55:33.631Z,51.84
2016-07-27T11:56:33.662Z,51.75
2016-07-27T11:57:33.690Z,52.33
2016-07-27T11:58:33.720Z,51.94
2016-07-27T11:59:33.752Z,51.65
2016-07-27T12:00:33.779Z,52.04
2016-07-27T12:01:33.809Z,52.14
2016-07-27T12:02:33.838Z,52.14
2016-07-27T12:03:33.869Z,52.04
2016-07-27T12:04:33.899Z,52.14
2016-07-27T12:05:33.930Z,52.04
2016-07-27T12:06:33.961Z,52.23
2016-07-27T12:07:33.990Z,52.14
2016-07-27T12:08:34.022Z,52.53
2016-07-27T12:09:34.047Z,52.62
2016-07-27T12:10:34.078Z,52.62
2016-07-27T12:11:34.108Z,52.72
2016-07-27T12:12:34.136Z,52.72
2016-07-27T12:13:34.166Z,52.62
2016-07-27T12:14:34.197Z,52.53
2016-07-27T12:15:34.233Z,52.82
2016-07-27T12:16:34.255Z,52.62
2016-07-27T12:17:34.286Z,52.72
2016-07-27T12:18:34.317Z,52.92
2016-07-27T12:19:34.346Z,51.94
2016-07-27T12:20:34.374Z,52.23
2016-07-27T12:21:34.405Z,52.14
2016-07-27T12:22:34.435Z,52.04
2016-07-27T12:23:34.463Z,52.23
2016-07-27T12:24:34.494Z,52.14
2016-07-27T12:25:34.523Z,52.82
2016-07-27T12:26:34.553Z,53.01
2016-07-27T12:27:34.581Z,52.53
2016-07-27T12:28:34.613Z,52.72
2016-07-27T12:29:34.642Z,52.62
2016-07-27T12:30:34.673Z,52.79
2016-07-27T12:31:34.699Z,52.79
2016-07-27T12:32:34.730Z,52.72
2016-07-27T12:33:34.762Z,52.92
2016-07-27T12:34:34.789Z,52.31
2016-07-27T12:35:34.819Z,52.98
2016-07-27T12:36:34.850Z,53.18
2016-07-27T12:37:34.878Z,53.38
2016-07-27T12:38:34.913Z,53.28
2016-07-27T12:39:34.939Z,53.28
2016-07-27T12:40:34.972Z,53.18
2016-07-27T12:41:34.998Z,52.98
2016-07-27T12:42:35.027Z,53.47
2016-07-27T12:43:35.058Z,53.47
2016-07-27T12:44:35.087Z,53.57
2016-07-27T12:45:35.118Z,53.38
2016-07-27T12:46:35.145Z,53.47
2016-07-27T12:47:35.175Z,53.28
2016-07-27T12:48:35.207Z,53.28
2016-07-27T12:49:35.233Z,54.15
2016-07-27T12:50:35.262Z,53.96
2016-07-27T12:51:35.294Z,53.74
2016-07-27T12:52:35.328Z,54.42
2016-07-27T12:53:35.354Z,54.8
2016-07-27T12:54:35.383Z,55
2016-07-27T12:55:35.414Z,54.8
2016-07-27T12:56:35.451Z,54.32
2016-07-27T12:57:35.470Z,54.97
2016-07-27T12:58:35.502Z,55.58
2016-07-27T12:59:35.536Z,55.07
2016-07-27T13:00:35.569Z,55.07
2016-07-27T13:01:35.590Z,54.97
2016-07-27T13:02:35.618Z,55.1
2016-07-27T13:03:35.647Z,55.07
2016-07-27T13:04:35.678Z,54.61
2016-07-27T13:05:35.712Z,54.71
2016-07-27T13:06:35.736Z,54.61
2016-07-27T13:07:35.776Z,54.52
2016-07-27T13:08:35.796Z,54.8
2016-07-27T13:09:35.826Z,54.61
2016-07-27T13:10:35.852Z,54.9
2016-07-27T13:11:35.883Z,54.32
2016-07-27T13:12:35.919Z,54.52